sensor_id;sensor_type;location;lat;lon;timestamp;pressure;altitude;pressure_sealevel;temperature;humidity
12146;BME280;6136;47.032;15.398;2023-04-25T00:00:06;96795.19;;;8.71;100.00
12146;BME280;6136;47.032;15.398;2023-04-25T00:02:37;96791.81;;;8.69;100.00
12146;BME280;6136;47.032;15.398;2023-04-25T00:05:10;96786.94;;;8.63;100.00
12146;BME280;6136;47.032;15.398;2023-04-25T00:07:39;96789.69;;;8.62;100.00
12146;BME280;6136;47.032;15.398;2023-04-25T00:10:09;96791.47;;;8.61;100.00
12146;BME280;6136;47.032;15.398;2023-04-25T00:12:39;96791.56;;;8.60;100.00
12146;BME280;6136;47.032;15.398;2023-04-25T00:15:10;96785.06;;;8.65;100.00
12146;BME280;6136;47.032;15.398;2023-04-25T00:17:39;96791.28;;;8.64;100.00
12146;BME280;6136;47.032;15.398;2023-04-25T00:20:08;96778.16;;;8.63;100.00
12146;BME280;6136;47.032;15.398;2023-04-25T00:22:37;96781.66;;;8.63;100.00
12146;BME280;6136;47.032;15.398;2023-04-25T00:25:06;96776.88;;;8.55;100.00
12146;BME280;6136;47.032;15.398;2023-04-25T00:27:35;96779.34;;;8.59;100.00
12146;BME280;6136;47.032;15.398;2023-04-25T00:30:04;96780.19;;;8.59;100.00
12146;BME280;6136;47.032;15.398;2023-04-25T00:32:34;96782.91;;;8.57;100.00
12146;BME280;6136;47.032;15.398;2023-04-25T00:35:03;96770.84;;;8.53;100.00
12146;BME280;6136;47.032;15.398;2023-04-25T00:37:32;96757.78;;;8.52;100.00
12146;BME280;6136;47.032;15.398;2023-04-25T00:40:01;96787.34;;;8.57;100.00
12146;BME280;6136;47.032;15.398;2023-04-25T00:42:30;96774.34;;;8.54;100.00
12146;BME280;6136;47.032;15.398;2023-04-25T00:45:00;96778.78;;;8.53;100.00
12146;BME280;6136;47.032;15.398;2023-04-25T00:47:36;96768.00;;;8.44;100.00
12146;BME280;6136;47.032;15.398;2023-04-25T00:50:06;96772.31;;;8.45;100.00
12146;BME280;6136;47.032;15.398;2023-04-25T00:52:35;96777.41;;;8.48;100.00
12146;BME280;6136;47.032;15.398;2023-04-25T00:55:07;96772.53;;;8.42;100.00
12146;BME280;6136;47.032;15.398;2023-04-25T00:57:36;96773.56;;;8.39;100.00
12146;BME280;6136;47.032;15.398;2023-04-25T01:00:06;96770.31;;;8.36;100.00
12146;BME280;6136;47.032;15.398;2023-04-25T01:02:37;96771.63;;;8.29;100.00
12146;BME280;6136;47.032;15.398;2023-04-25T01:05:06;96772.75;;;8.25;100.00
12146;BME280;6136;47.032;15.398;2023-04-25T01:07:35;96770.53;;;8.18;100.00
12146;BME280;6136;47.032;15.398;2023-04-25T01:10:05;96763.00;;;8.12;100.00
12146;BME280;6136;47.032;15.398;2023-04-25T01:12:34;96774.69;;;8.08;100.00
12146;BME280;6136;47.032;15.398;2023-04-25T01:15:02;96771.31;;;8.06;100.00
12146;BME280;6136;47.032;15.398;2023-04-25T01:17:31;96767.94;;;8.04;100.00
12146;BME280;6136;47.032;15.398;2023-04-25T01:20:03;96766.63;;;7.97;100.00
12146;BME280;6136;47.032;15.398;2023-04-25T01:22:33;96762.72;;;7.90;100.00
12146;BME280;6136;47.032;15.398;2023-04-25T01:25:02;96754.13;;;7.87;100.00
12146;BME280;6136;47.032;15.398;2023-04-25T01:27:30;96772.31;;;7.91;100.00
12146;BME280;6136;47.032;15.398;2023-04-25T01:30:00;96781.56;;;7.84;100.00
12146;BME280;6136;47.032;15.398;2023-04-25T01:32:31;96775.22;;;7.87;100.00
12146;BME280;6136;47.032;15.398;2023-04-25T01:35:05;96772.72;;;7.85;100.00
12146;BME280;6136;47.032;15.398;2023-04-25T01:37:38;96774.78;;;7.80;100.00
12146;BME280;6136;47.032;15.398;2023-04-25T01:40:08;96777.88;;;7.87;100.00
12146;BME280;6136;47.032;15.398;2023-04-25T01:42:40;96772.91;;;7.82;100.00
12146;BME280;6136;47.032;15.398;2023-04-25T01:45:10;96778.19;;;7.82;100.00
12146;BME280;6136;47.032;15.398;2023-04-25T01:47:39;96784.94;;;7.86;100.00
12146;BME280;6136;47.032;15.398;2023-04-25T01:50:34;96780.41;;;7.88;100.00
12146;BME280;6136;47.032;15.398;2023-04-25T01:53:12;96788.16;;;7.91;100.00
12146;BME280;6136;47.032;15.398;2023-04-25T01:55:43;96770.81;;;7.87;100.00
12146;BME280;6136;47.032;15.398;2023-04-25T01:58:14;96779.06;;;7.95;100.00
12146;BME280;6136;47.032;15.398;2023-04-25T02:01:03;96780.13;;;7.93;100.00
12146;BME280;6136;47.032;15.398;2023-04-25T02:03:39;96778.13;;;7.96;100.00
12146;BME280;6136;47.032;15.398;2023-04-25T02:06:16;96757.91;;;7.83;100.00
12146;BME280;6136;47.032;15.398;2023-04-25T02:08:47;96771.56;;;7.89;100.00
12146;BME280;6136;47.032;15.398;2023-04-25T02:11:16;96774.38;;;7.86;100.00
12146;BME280;6136;47.032;15.398;2023-04-25T02:13:52;96782.78;;;7.78;100.00
12146;BME280;6136;47.032;15.398;2023-04-25T02:16:32;96781.28;;;7.74;100.00
12146;BME280;6136;47.032;15.398;2023-04-25T02:19:02;96782.53;;;7.69;100.00
12146;BME280;6136;47.032;15.398;2023-04-25T02:21:31;96789.63;;;7.54;100.00
12146;BME280;6136;47.032;15.398;2023-04-25T02:24:05;96794.59;;;7.45;100.00
12146;BME280;6136;47.032;15.398;2023-04-25T02:26:34;96796.31;;;7.31;100.00
12146;BME280;6136;47.032;15.398;2023-04-25T02:37:54;96796.41;;;7.16;100.00
12146;BME280;6136;47.032;15.398;2023-04-25T02:40:24;96803.75;;;7.11;100.00
12146;BME280;6136;47.032;15.398;2023-04-25T02:42:53;96804.38;;;7.00;100.00
12146;BME280;6136;47.032;15.398;2023-04-25T02:45:21;96796.84;;;6.94;100.00
12146;BME280;6136;47.032;15.398;2023-04-25T02:47:50;96799.75;;;6.89;100.00
12146;BME280;6136;47.032;15.398;2023-04-25T02:50:19;96794.69;;;6.86;100.00
12146;BME280;6136;47.032;15.398;2023-04-25T02:52:48;96786.31;;;6.80;100.00
12146;BME280;6136;47.032;15.398;2023-04-25T02:55:21;96796.16;;;6.76;100.00
12146;BME280;6136;47.032;15.398;2023-04-25T02:57:55;96788.31;;;6.60;100.00
12146;BME280;6136;47.032;15.398;2023-04-25T03:00:35;96781.31;;;6.45;100.00
12146;BME280;6136;47.032;15.398;2023-04-25T03:03:04;96794.91;;;6.38;100.00
12146;BME280;6136;47.032;15.398;2023-04-25T03:05:32;96797.28;;;6.42;100.00
12146;BME280;6136;47.032;15.398;2023-04-25T03:08:00;96795.59;;;6.41;100.00
12146;BME280;6136;47.032;15.398;2023-04-25T03:10:31;96798.50;;;6.37;100.00
12146;BME280;6136;47.032;15.398;2023-04-25T03:13:05;96800.63;;;6.30;100.00
12146;BME280;6136;47.032;15.398;2023-04-25T03:15:34;96806.31;;;6.22;100.00
12146;BME280;6136;47.032;15.398;2023-04-25T03:18:03;96804.31;;;6.12;100.00
12146;BME280;6136;47.032;15.398;2023-04-25T03:20:31;96802.97;;;6.05;100.00
12146;BME280;6136;47.032;15.398;2023-04-25T03:23:00;96805.84;;;6.00;100.00
12146;BME280;6136;47.032;15.398;2023-04-25T03:25:29;96784.50;;;5.91;100.00
12146;BME280;6136;47.032;15.398;2023-04-25T03:27:57;96802.81;;;5.92;100.00
12146;BME280;6136;47.032;15.398;2023-04-25T03:30:27;96784.81;;;5.84;100.00
12146;BME280;6136;47.032;15.398;2023-04-25T03:32:56;96799.22;;;5.77;100.00
12146;BME280;6136;47.032;15.398;2023-04-25T03:35:24;96778.44;;;5.73;100.00
12146;BME280;6136;47.032;15.398;2023-04-25T03:37:53;96790.00;;;5.70;100.00
12146;BME280;6136;47.032;15.398;2023-04-25T03:40:27;96784.31;;;5.62;100.00
12146;BME280;6136;47.032;15.398;2023-04-25T03:43:19;96782.00;;;5.40;100.00
12146;BME280;6136;47.032;15.398;2023-04-25T03:45:54;96785.44;;;5.41;100.00
12146;BME280;6136;47.032;15.398;2023-04-25T03:48:25;96789.66;;;5.28;100.00
12146;BME280;6136;47.032;15.398;2023-04-25T03:50:54;96782.03;;;5.23;100.00
12146;BME280;6136;47.032;15.398;2023-04-25T03:53:23;96779.50;;;5.22;100.00
12146;BME280;6136;47.032;15.398;2023-04-25T03:56:21;96785.75;;;5.19;100.00
12146;BME280;6136;47.032;15.398;2023-04-25T03:58:56;96790.34;;;5.16;100.00
12146;BME280;6136;47.032;15.398;2023-04-25T04:01:29;96786.09;;;5.13;100.00
12146;BME280;6136;47.032;15.398;2023-04-25T04:03:57;96796.25;;;5.19;100.00
12146;BME280;6136;47.032;15.398;2023-04-25T04:06:26;96799.00;;;5.18;100.00
12146;BME280;6136;47.032;15.398;2023-04-25T04:09:06;96811.59;;;5.27;100.00
12146;BME280;6136;47.032;15.398;2023-04-25T04:11:39;96812.75;;;5.38;100.00
12146;BME280;6136;47.032;15.398;2023-04-25T04:14:07;96804.88;;;5.54;100.00
12146;BME280;6136;47.032;15.398;2023-04-25T04:16:41;96805.41;;;5.61;100.00
12146;BME280;6136;47.032;15.398;2023-04-25T04:19:09;96813.78;;;5.67;100.00
12146;BME280;6136;47.032;15.398;2023-04-25T04:21:42;96811.50;;;5.61;100.00
12146;BME280;6136;47.032;15.398;2023-04-25T04:24:11;96811.00;;;5.70;100.00
12146;BME280;6136;47.032;15.398;2023-04-25T04:26:50;96816.16;;;5.72;100.00
12146;BME280;6136;47.032;15.398;2023-04-25T04:29:29;96818.72;;;5.73;100.00
12146;BME280;6136;47.032;15.398;2023-04-25T04:32:04;96821.47;;;5.88;100.00
12146;BME280;6136;47.032;15.398;2023-04-25T04:34:32;96827.91;;;5.98;100.00
12146;BME280;6136;47.032;15.398;2023-04-25T04:37:02;96829.41;;;6.02;100.00
12146;BME280;6136;47.032;15.398;2023-04-25T04:39:31;96823.66;;;6.11;100.00
12146;BME280;6136;47.032;15.398;2023-04-25T04:42:18;96820.09;;;6.12;100.00
12146;BME280;6136;47.032;15.398;2023-04-25T04:45:07;96824.34;;;6.14;100.00
12146;BME280;6136;47.032;15.398;2023-04-25T04:47:56;96818.72;;;6.20;100.00
12146;BME280;6136;47.032;15.398;2023-04-25T04:50:47;96819.81;;;6.32;100.00
12146;BME280;6136;47.032;15.398;2023-04-25T04:53:42;96819.28;;;6.41;100.00
12146;BME280;6136;47.032;15.398;2023-04-25T04:56:29;96813.91;;;6.58;100.00
12146;BME280;6136;47.032;15.398;2023-04-25T04:59:22;96806.00;;;6.58;100.00
12146;BME280;6136;47.032;15.398;2023-04-25T05:02:09;96813.34;;;6.68;100.00
12146;BME280;6136;47.032;15.398;2023-04-25T05:04:57;96819.28;;;6.71;100.00
12146;BME280;6136;47.032;15.398;2023-04-25T05:07:36;96817.06;;;6.79;100.00
12146;BME280;6136;47.032;15.398;2023-04-25T05:10:21;96805.13;;;6.88;100.00
12146;BME280;6136;47.032;15.398;2023-04-25T05:13:08;96811.03;;;6.91;100.00
12146;BME280;6136;47.032;15.398;2023-04-25T05:16:03;96803.69;;;6.82;100.00
12146;BME280;6136;47.032;15.398;2023-04-25T05:18:58;96805.75;;;6.77;100.00
12146;BME280;6136;47.032;15.398;2023-04-25T05:21:44;96796.94;;;6.92;100.00
12146;BME280;6136;47.032;15.398;2023-04-25T05:24:31;96797.81;;;7.07;100.00
12146;BME280;6136;47.032;15.398;2023-04-25T05:27:19;96799.69;;;7.19;100.00
12146;BME280;6136;47.032;15.398;2023-04-25T05:30:15;96803.56;;;7.28;100.00
12146;BME280;6136;47.032;15.398;2023-04-25T05:33:03;96783.78;;;7.35;100.00
12146;BME280;6136;47.032;15.398;2023-04-25T05:35:32;96794.78;;;7.41;100.00
12146;BME280;6136;47.032;15.398;2023-04-25T05:38:01;96799.88;;;7.45;100.00
12146;BME280;6136;47.032;15.398;2023-04-25T05:40:50;96809.28;;;7.49;100.00
12146;BME280;6136;47.032;15.398;2023-04-25T05:43:37;96803.19;;;7.48;100.00
12146;BME280;6136;47.032;15.398;2023-04-25T05:46:24;96795.91;;;7.52;100.00
12146;BME280;6136;47.032;15.398;2023-04-25T05:49:12;96806.03;;;7.86;100.00
12146;BME280;6136;47.032;15.398;2023-04-25T05:52:03;96806.06;;;8.13;100.00
12146;BME280;6136;47.032;15.398;2023-04-25T05:54:51;96806.13;;;7.99;100.00
12146;BME280;6136;47.032;15.398;2023-04-25T05:57:21;96803.34;;;8.00;100.00
12146;BME280;6136;47.032;15.398;2023-04-25T05:59:49;96802.28;;;8.17;100.00
12146;BME280;6136;47.032;15.398;2023-04-25T06:02:19;96802.91;;;8.35;100.00
12146;BME280;6136;47.032;15.398;2023-04-25T06:04:50;96802.44;;;8.55;100.00
12146;BME280;6136;47.032;15.398;2023-04-25T06:07:20;96803.47;;;8.79;100.00
12146;BME280;6136;47.032;15.398;2023-04-25T06:09:51;96803.03;;;8.85;100.00
12146;BME280;6136;47.032;15.398;2023-04-25T06:12:20;96794.78;;;8.77;100.00
12146;BME280;6136;47.032;15.398;2023-04-25T06:14:50;96796.06;;;8.97;100.00
12146;BME280;6136;47.032;15.398;2023-04-25T06:17:19;96798.28;;;8.90;100.00
12146;BME280;6136;47.032;15.398;2023-04-25T06:19:49;96800.31;;;8.87;100.00
12146;BME280;6136;47.032;15.398;2023-04-25T06:22:18;96797.75;;;8.85;100.00
12146;BME280;6136;47.032;15.398;2023-04-25T06:24:46;96795.13;;;8.98;100.00
12146;BME280;6136;47.032;15.398;2023-04-25T06:27:16;96785.72;;;9.07;100.00
12146;BME280;6136;47.032;15.398;2023-04-25T06:29:45;96788.25;;;9.08;100.00
12146;BME280;6136;47.032;15.398;2023-04-25T06:32:14;96781.81;;;9.25;100.00
12146;BME280;6136;47.032;15.398;2023-04-25T06:34:42;96776.19;;;9.55;100.00
12146;BME280;6136;47.032;15.398;2023-04-25T06:37:11;96786.28;;;9.73;100.00
12146;BME280;6136;47.032;15.398;2023-04-25T06:39:40;96767.72;;;9.62;100.00
12146;BME280;6136;47.032;15.398;2023-04-25T06:42:11;96770.22;;;9.64;100.00
12146;BME280;6136;47.032;15.398;2023-04-25T06:44:47;96767.63;;;9.88;100.00
12146;BME280;6136;47.032;15.398;2023-04-25T06:47:17;96778.41;;;9.97;100.00
12146;BME280;6136;47.032;15.398;2023-04-25T06:49:45;96776.03;;;10.18;100.00
12146;BME280;6136;47.032;15.398;2023-04-25T06:52:14;96768.16;;;10.29;100.00
12146;BME280;6136;47.032;15.398;2023-04-25T06:54:45;96778.44;;;10.45;100.00
12146;BME280;6136;47.032;15.398;2023-04-25T06:57:37;96764.69;;;10.75;100.00
12146;BME280;6136;47.032;15.398;2023-04-25T07:00:33;96768.22;;;10.86;100.00
12146;BME280;6136;47.032;15.398;2023-04-25T07:03:01;96747.91;;;11.09;100.00
12146;BME280;6136;47.032;15.398;2023-04-25T07:05:31;96750.94;;;11.27;100.00
12146;BME280;6136;47.032;15.398;2023-04-25T07:08:00;96747.59;;;11.47;100.00
12146;BME280;6136;47.032;15.398;2023-04-25T07:10:28;96738.28;;;11.53;100.00
12146;BME280;6136;47.032;15.398;2023-04-25T07:12:59;96753.72;;;11.92;100.00
12146;BME280;6136;47.032;15.398;2023-04-25T07:15:28;96748.72;;;12.21;100.00
12146;BME280;6136;47.032;15.398;2023-04-25T07:17:59;96737.22;;;12.53;100.00
12146;BME280;6136;47.032;15.398;2023-04-25T07:20:28;96726.44;;;12.65;100.00
12146;BME280;6136;47.032;15.398;2023-04-25T07:22:58;96728.75;;;12.79;100.00
12146;BME280;6136;47.032;15.398;2023-04-25T07:25:26;96711.22;;;12.98;96.71
12146;BME280;6136;47.032;15.398;2023-04-25T07:27:56;96714.72;;;13.19;96.82
12146;BME280;6136;47.032;15.398;2023-04-25T07:30:26;96709.28;;;13.51;92.60
12146;BME280;6136;47.032;15.398;2023-04-25T07:32:54;96720.94;;;13.99;83.52
12146;BME280;6136;47.032;15.398;2023-04-25T07:35:25;96712.31;;;14.65;77.59
12146;BME280;6136;47.032;15.398;2023-04-25T07:37:54;96722.28;;;16.03;73.61
12146;BME280;6136;47.032;15.398;2023-04-25T07:40:23;96718.22;;;17.40;63.10
12146;BME280;6136;47.032;15.398;2023-04-25T07:42:56;96736.44;;;20.54;54.93
12146;BME280;6136;47.032;15.398;2023-04-25T07:45:34;96719.63;;;21.58;52.50
12146;BME280;6136;47.032;15.398;2023-04-25T07:48:03;96729.03;;;23.14;45.16
12146;BME280;6136;47.032;15.398;2023-04-25T07:50:37;96716.56;;;23.13;44.67
12146;BME280;6136;47.032;15.398;2023-04-25T07:53:05;96714.44;;;23.86;43.36
12146;BME280;6136;47.032;15.398;2023-04-25T07:55:42;96700.13;;;25.53;37.88
12146;BME280;6136;47.032;15.398;2023-04-25T07:58:14;96701.41;;;25.70;37.03
12146;BME280;6136;47.032;15.398;2023-04-25T08:00:51;96705.78;;;26.49;36.21
12146;BME280;6136;47.032;15.398;2023-04-25T08:03:46;96698.59;;;23.06;40.69
12146;BME280;6136;47.032;15.398;2023-04-25T08:06:24;96710.47;;;21.30;42.93
12146;BME280;6136;47.032;15.398;2023-04-25T08:09:22;96712.63;;;21.12;41.20
12146;BME280;6136;47.032;15.398;2023-04-25T08:11:52;96712.97;;;22.49;38.05
12146;BME280;6136;47.032;15.398;2023-04-25T08:14:26;96707.50;;;22.42;38.06
12146;BME280;6136;47.032;15.398;2023-04-25T08:16:55;96711.09;;;23.07;36.39
12146;BME280;6136;47.032;15.398;2023-04-25T08:19:24;96711.28;;;22.84;34.35
12146;BME280;6136;47.032;15.398;2023-04-25T08:21:54;96711.09;;;21.17;39.90
12146;BME280;6136;47.032;15.398;2023-04-25T08:24:30;96708.84;;;21.73;36.62
12146;BME280;6136;47.032;15.398;2023-04-25T08:26:59;96699.03;;;22.67;34.10
12146;BME280;6136;47.032;15.398;2023-04-25T08:29:28;96702.19;;;24.31;31.73
12146;BME280;6136;47.032;15.398;2023-04-25T08:31:56;96708.69;;;25.10;29.05
12146;BME280;6136;47.032;15.398;2023-04-25T08:34:31;96707.22;;;25.28;27.55
12146;BME280;6136;47.032;15.398;2023-04-25T08:37:04;96707.44;;;23.98;29.60
12146;BME280;6136;47.032;15.398;2023-04-25T08:39:53;96700.94;;;23.09;30.16
12146;BME280;6136;47.032;15.398;2023-04-25T08:42:38;96705.56;;;23.15;31.30
12146;BME280;6136;47.032;15.398;2023-04-25T08:45:09;96704.63;;;23.29;28.85
12146;BME280;6136;47.032;15.398;2023-04-25T08:47:39;96697.88;;;21.60;31.64
12146;BME280;6136;47.032;15.398;2023-04-25T08:50:08;96719.69;;;20.44;34.39
12146;BME280;6136;47.032;15.398;2023-04-25T08:52:43;96706.63;;;19.47;34.09
12146;BME280;6136;47.032;15.398;2023-04-25T08:55:12;96710.66;;;18.86;35.75
12146;BME280;6136;47.032;15.398;2023-04-25T08:57:42;96705.94;;;17.64;38.69
12146;BME280;6136;47.032;15.398;2023-04-25T09:00:12;96711.81;;;17.41;39.09
12146;BME280;6136;47.032;15.398;2023-04-25T09:02:43;96710.19;;;16.97;39.04
12146;BME280;6136;47.032;15.398;2023-04-25T09:05:13;96717.16;;;16.90;38.12
12146;BME280;6136;47.032;15.398;2023-04-25T09:07:44;96714.13;;;16.85;38.12
12146;BME280;6136;47.032;15.398;2023-04-25T09:10:16;96717.13;;;16.82;39.36
12146;BME280;6136;47.032;15.398;2023-04-25T09:12:44;96721.00;;;16.69;40.66
12146;BME280;6136;47.032;15.398;2023-04-25T09:15:13;96720.91;;;16.44;41.39
12146;BME280;6136;47.032;15.398;2023-04-25T09:18:09;96722.28;;;16.48;40.38
12146;BME280;6136;47.032;15.398;2023-04-25T09:20:42;96718.53;;;16.58;42.51
12146;BME280;6136;47.032;15.398;2023-04-25T09:23:15;96704.53;;;17.00;38.83
12146;BME280;6136;47.032;15.398;2023-04-25T09:25:47;96708.81;;;17.11;38.50
12146;BME280;6136;47.032;15.398;2023-04-25T09:28:16;96715.72;;;17.73;36.85
12146;BME280;6136;47.032;15.398;2023-04-25T09:30:54;96719.84;;;18.01;37.92
12146;BME280;6136;47.032;15.398;2023-04-25T09:33:31;96711.50;;;18.71;36.00
12146;BME280;6136;47.032;15.398;2023-04-25T09:36:04;96711.13;;;19.38;34.55
12146;BME280;6136;47.032;15.398;2023-04-25T09:38:59;96711.72;;;19.73;33.53
12146;BME280;6136;47.032;15.398;2023-04-25T09:41:37;96710.69;;;19.82;33.55
12146;BME280;6136;47.032;15.398;2023-04-25T09:44:05;96712.84;;;19.87;33.61
12146;BME280;6136;47.032;15.398;2023-04-25T09:46:36;96705.75;;;19.38;34.28
12146;BME280;6136;47.032;15.398;2023-04-25T09:49:10;96704.94;;;18.97;35.84
12146;BME280;6136;47.032;15.398;2023-04-25T09:52:00;96713.84;;;18.98;36.49
12146;BME280;6136;47.032;15.398;2023-04-25T09:54:35;96713.19;;;18.80;38.33
12146;BME280;6136;47.032;15.398;2023-04-25T09:57:15;96709.84;;;19.90;33.83
12146;BME280;6136;47.032;15.398;2023-04-25T09:59:46;96705.25;;;19.51;35.48
12146;BME280;6136;47.032;15.398;2023-04-25T10:02:16;96693.41;;;20.46;33.19
12146;BME280;6136;47.032;15.398;2023-04-25T10:04:49;96681.78;;;21.52;32.26
12146;BME280;6136;47.032;15.398;2023-04-25T10:07:29;96682.22;;;21.03;35.06
12146;BME280;6136;47.032;15.398;2023-04-25T10:10:02;96675.16;;;22.49;30.89
12146;BME280;6136;47.032;15.398;2023-04-25T10:12:31;96678.09;;;22.33;31.53
12146;BME280;6136;47.032;15.398;2023-04-25T10:15:03;96671.44;;;22.50;32.19
12146;BME280;6136;47.032;15.398;2023-04-25T10:17:32;96663.34;;;22.71;32.09
12146;BME280;6136;47.032;15.398;2023-04-25T10:20:01;96662.50;;;23.13;30.67
12146;BME280;6136;47.032;15.398;2023-04-25T10:22:33;96652.88;;;23.32;29.19
12146;BME280;6136;47.032;15.398;2023-04-25T10:25:05;96653.09;;;23.99;29.43
12146;BME280;6136;47.032;15.398;2023-04-25T10:27:35;96648.81;;;26.16;25.75
12146;BME280;6136;47.032;15.398;2023-04-25T10:30:05;96650.69;;;26.28;27.33
12146;BME280;6136;47.032;15.398;2023-04-25T10:32:37;96639.63;;;27.49;24.75
12146;BME280;6136;47.032;15.398;2023-04-25T10:35:13;96632.03;;;28.12;20.82
12146;BME280;6136;47.032;15.398;2023-04-25T10:37:57;96613.69;;;27.47;23.72
12146;BME280;6136;47.032;15.398;2023-04-25T10:40:27;96626.69;;;26.19;24.15
12146;BME280;6136;47.032;15.398;2023-04-25T10:42:55;96624.88;;;26.06;22.73
12146;BME280;6136;47.032;15.398;2023-04-25T10:45:23;96617.88;;;25.72;26.03
12146;BME280;6136;47.032;15.398;2023-04-25T10:47:54;96615.50;;;27.77;21.83
12146;BME280;6136;47.032;15.398;2023-04-25T10:50:37;96605.75;;;27.20;22.12
12146;BME280;6136;47.032;15.398;2023-04-25T10:53:14;96609.44;;;26.00;25.79
12146;BME280;6136;47.032;15.398;2023-04-25T10:55:56;96593.53;;;26.80;26.18
12146;BME280;6136;47.032;15.398;2023-04-25T10:58:25;96607.22;;;28.21;21.78
12146;BME280;6136;47.032;15.398;2023-04-25T11:00:55;96595.84;;;27.51;24.19
12146;BME280;6136;47.032;15.398;2023-04-25T11:03:24;96588.78;;;28.52;24.70
12146;BME280;6136;47.032;15.398;2023-04-25T11:05:52;96590.44;;;27.69;23.14
12146;BME280;6136;47.032;15.398;2023-04-25T11:08:41;96584.06;;;24.23;28.22
12146;BME280;6136;47.032;15.398;2023-04-25T11:11:20;96581.63;;;26.05;25.36
12146;BME280;6136;47.032;15.398;2023-04-25T11:13:49;96589.00;;;24.13;29.06
12146;BME280;6136;47.032;15.398;2023-04-25T11:16:23;96564.09;;;26.07;24.36
12146;BME280;6136;47.032;15.398;2023-04-25T11:18:57;96569.97;;;25.20;26.98
12146;BME280;6136;47.032;15.398;2023-04-25T11:21:25;96584.91;;;23.70;28.21
12146;BME280;6136;47.032;15.398;2023-04-25T11:23:56;96583.00;;;22.52;30.10
12146;BME280;6136;47.032;15.398;2023-04-25T11:26:25;96581.75;;;22.12;31.31
12146;BME280;6136;47.032;15.398;2023-04-25T11:28:57;96580.00;;;22.47;31.03
12146;BME280;6136;47.032;15.398;2023-04-25T11:31:26;96580.09;;;21.46;32.54
12146;BME280;6136;47.032;15.398;2023-04-25T11:33:57;96581.41;;;20.98;34.92
12146;BME280;6136;47.032;15.398;2023-04-25T11:36:25;96579.94;;;20.43;33.10
12146;BME280;6136;47.032;15.398;2023-04-25T11:38:54;96587.72;;;19.37;33.08
12146;BME280;6136;47.032;15.398;2023-04-25T11:41:23;96584.75;;;19.16;32.67
12146;BME280;6136;47.032;15.398;2023-04-25T11:43:54;96600.72;;;19.17;35.32
12146;BME280;6136;47.032;15.398;2023-04-25T11:46:22;96605.97;;;18.78;38.62
12146;BME280;6136;47.032;15.398;2023-04-25T11:48:51;96611.00;;;18.41;38.76
12146;BME280;6136;47.032;15.398;2023-04-25T11:51:19;96635.19;;;17.40;46.16
12146;BME280;6136;47.032;15.398;2023-04-25T11:53:48;96646.63;;;16.38;57.93
12146;BME280;6136;47.032;15.398;2023-04-25T11:56:17;96643.22;;;15.65;58.01
12146;BME280;6136;47.032;15.398;2023-04-25T11:58:57;96654.97;;;15.07;63.43
12146;BME280;6136;47.032;15.398;2023-04-25T12:01:27;96658.84;;;14.47;63.65
12146;BME280;6136;47.032;15.398;2023-04-25T12:04:11;96660.94;;;14.24;64.03
12146;BME280;6136;47.032;15.398;2023-04-25T12:06:41;96651.09;;;13.77;64.16
12146;BME280;6136;47.032;15.398;2023-04-25T12:09:12;96636.41;;;14.21;62.52
12146;BME280;6136;47.032;15.398;2023-04-25T12:11:41;96640.63;;;14.52;61.31
12146;BME280;6136;47.032;15.398;2023-04-25T12:14:12;96636.50;;;14.77;61.90
12146;BME280;6136;47.032;15.398;2023-04-25T12:16:41;96641.09;;;15.04;58.65
12146;BME280;6136;47.032;15.398;2023-04-25T12:19:13;96647.03;;;15.62;55.75
12146;BME280;6136;47.032;15.398;2023-04-25T12:21:42;96635.78;;;16.39;53.29
12146;BME280;6136;47.032;15.398;2023-04-25T12:24:26;96636.13;;;17.31;48.15
12146;BME280;6136;47.032;15.398;2023-04-25T12:26:59;96629.75;;;18.33;47.25
12146;BME280;6136;47.032;15.398;2023-04-25T12:29:32;96622.22;;;19.09;45.30
12146;BME280;6136;47.032;15.398;2023-04-25T12:32:31;96626.59;;;19.65;43.36
12146;BME280;6136;47.032;15.398;2023-04-25T12:35:00;96619.91;;;19.61;43.01
12146;BME280;6136;47.032;15.398;2023-04-25T12:37:28;96626.75;;;19.00;46.02
12146;BME280;6136;47.032;15.398;2023-04-25T12:39:57;96621.59;;;18.67;45.60
12146;BME280;6136;47.032;15.398;2023-04-25T12:42:26;96619.03;;;18.24;45.79
12146;BME280;6136;47.032;15.398;2023-04-25T12:44:54;96621.56;;;18.50;40.16
12146;BME280;6136;47.032;15.398;2023-04-25T12:47:22;96611.03;;;18.65;39.64
12146;BME280;6136;47.032;15.398;2023-04-25T12:49:52;96605.97;;;18.54;42.75
12146;BME280;6136;47.032;15.398;2023-04-25T12:52:20;96612.66;;;18.98;40.44
12146;BME280;6136;47.032;15.398;2023-04-25T12:54:48;96615.63;;;19.20;39.02
12146;BME280;6136;47.032;15.398;2023-04-25T12:57:16;96615.41;;;18.74;39.38
12146;BME280;6136;47.032;15.398;2023-04-25T12:59:45;96606.66;;;18.64;38.56
12146;BME280;6136;47.032;15.398;2023-04-25T13:02:13;96608.63;;;19.11;37.11
12146;BME280;6136;47.032;15.398;2023-04-25T13:04:42;96605.28;;;19.00;37.13
12146;BME280;6136;47.032;15.398;2023-04-25T13:07:11;96603.09;;;19.04;40.68
12146;BME280;6136;47.032;15.398;2023-04-25T13:09:39;96604.47;;;19.55;40.66
12146;BME280;6136;47.032;15.398;2023-04-25T13:12:08;96597.25;;;19.87;40.82
12146;BME280;6136;47.032;15.398;2023-04-25T13:14:36;96599.69;;;20.27;37.26
12146;BME280;6136;47.032;15.398;2023-04-25T13:17:04;96598.75;;;20.43;38.25
12146;BME280;6136;47.032;15.398;2023-04-25T13:19:33;96593.81;;;20.24;38.30
12146;BME280;6136;47.032;15.398;2023-04-25T13:22:01;96609.84;;;19.86;39.55
12146;BME280;6136;47.032;15.398;2023-04-25T13:24:32;96603.38;;;20.03;38.08
12146;BME280;6136;47.032;15.398;2023-04-25T13:27:00;96598.16;;;20.02;37.48
12146;BME280;6136;47.032;15.398;2023-04-25T13:29:30;96599.13;;;19.47;38.59
12146;BME280;6136;47.032;15.398;2023-04-25T13:31:58;96595.34;;;19.95;37.46
12146;BME280;6136;47.032;15.398;2023-04-25T13:34:27;96588.72;;;20.37;36.85
12146;BME280;6136;47.032;15.398;2023-04-25T13:36:55;96590.09;;;20.25;36.61
12146;BME280;6136;47.032;15.398;2023-04-25T13:39:24;96585.13;;;20.44;36.02